createdAt,value
2022-11-05T00:09:12.680Z,1013.82
2022-11-05T00:18:49.559Z,1013.93
2022-11-05T00:28:26.355Z,1014.06
2022-11-05T00:38:03.581Z,1014.09
2022-11-05T00:47:40.371Z,1014.22
2022-11-05T00:57:17.087Z,1014.28
2022-11-05T01:06:53.583Z,1014.26
2022-11-05T01:16:30.277Z,1014.37
2022-11-05T01:26:08.941Z,1014.34
2022-11-05T01:35:44.640Z,1014.5
2022-11-05T01:45:21.634Z,1014.68
2022-11-05T01:54:58.247Z,1014.74
2022-11-05T02:04:34.703Z,1014.93
2022-11-05T02:14:11.168Z,1014.94
2022-11-05T02:23:49.813Z,1015.05
2022-11-05T02:33:25.255Z,1015.09
2022-11-05T02:43:03.997Z,1015.05
2022-11-05T02:52:39.644Z,1015.01
2022-11-05T03:02:15.811Z,1015.11
2022-11-05T03:11:52.606Z,1015.22
2022-11-05T03:21:29.569Z,1015.38
2022-11-05T03:31:06.896Z,1015.55
2022-11-05T03:40:43.617Z,1015.6
2022-11-05T03:59:57.258Z,1015.95
2022-11-05T04:09:34.333Z,1016
2022-11-05T04:19:11.639Z,1016.09
2022-11-05T04:28:48.228Z,1016.17
2022-11-05T04:38:25.341Z,1016.2
2022-11-05T04:57:39.255Z,1016.33
2022-11-05T05:07:15.935Z,1016.46
2022-11-05T05:16:52.715Z,1016.47
2022-11-05T05:26:29.373Z,1016.42
2022-11-05T05:36:11.029Z,1016.48
2022-11-05T05:45:42.867Z,1016.65
2022-11-05T05:55:20.216Z,1016.91
2022-11-05T06:14:33.667Z,1017.15
2022-11-05T06:24:11.557Z,1017.25
2022-11-05T06:33:47.795Z,1017.42
2022-11-05T06:43:24.637Z,1017.67
2022-11-05T06:53:01.841Z,1017.85
2022-11-05T07:02:39.869Z,1018.06
2022-11-05T07:12:16.869Z,1018.03
2022-11-05T07:21:55.098Z,1018.08
2022-11-05T07:31:32.740Z,1018.18
2022-11-05T07:41:10.507Z,1018.13
2022-11-05T08:00:26.653Z,1018.35
2022-11-05T08:10:04.612Z,1018.3
2022-11-05T08:19:42.023Z,1018.41
2022-11-05T08:29:19.356Z,1018.53
2022-11-05T08:38:56.507Z,1018.66
2022-11-05T08:48:32.892Z,1018.94
2022-11-05T08:58:10.481Z,1018.95
2022-11-05T09:07:48.944Z,1018.97
2022-11-05T09:17:27.238Z,1018.98
2022-11-05T09:27:04.867Z,1019.11
2022-11-05T09:46:20.745Z,1019.16
2022-11-05T09:55:57.824Z,1019.27
2022-11-05T10:05:35.886Z,1019.33
2022-11-05T10:24:52.639Z,1019.27
2022-11-05T10:34:29.296Z,1019.21
2022-11-05T10:44:06.771Z,1019.18
2022-11-05T10:53:57.316Z,1019.15
2022-11-05T11:03:19.664Z,1019.31
2022-11-05T11:13:39.105Z,1019.09
2022-11-05T11:23:00.161Z,1019.25
2022-11-05T11:32:48.911Z,1019.19
2022-11-05T11:42:16.003Z,1019.12
2022-11-05T12:01:11.767Z,1018.99
2022-11-05T12:10:51.523Z,1018.91
2022-11-05T12:20:27.094Z,1019.16
2022-11-05T12:30:04.334Z,1019.09
2022-11-05T12:39:38.557Z,1019.18
2022-11-05T12:49:51.870Z,1019.1
2022-11-05T12:59:48.850Z,1019
2022-11-05T13:09:15.281Z,1018.99
2022-11-05T13:18:40.100Z,1019.09
2022-11-05T13:28:05.016Z,1019.15
2022-11-05T13:37:38.386Z,1019.25
2022-11-05T13:57:12.975Z,1019.23
2022-11-05T14:06:36.513Z,1019.32
2022-11-05T14:16:12.149Z,1019.28
2022-11-05T14:25:45.636Z,1019.29
2022-11-05T14:35:20.636Z,1019.3
2022-11-05T14:44:56.617Z,1019.37
2022-11-05T14:54:32.869Z,1019.39
2022-11-05T15:04:08.677Z,1019.58
2022-11-05T15:13:43.913Z,1019.69
2022-11-05T15:23:19.523Z,1019.72
2022-11-05T15:32:54.518Z,1019.87
2022-11-05T15:42:32.020Z,1019.95
2022-11-05T15:52:06.337Z,1020.15
2022-11-05T16:11:18.270Z,1020.31
2022-11-05T16:20:54.561Z,1020.37
2022-11-05T16:30:30.967Z,1020.5
2022-11-05T16:49:43.751Z,1020.68
2022-11-05T16:59:19.921Z,1020.81
2022-11-05T17:08:56.408Z,1020.89
2022-11-05T17:18:32.743Z,1021.14
2022-11-05T17:28:09.427Z,1021.17
2022-11-05T17:37:45.331Z,1021.25
2022-11-05T17:47:21.558Z,1021.33
2022-11-05T17:56:57.931Z,1021.43
2022-11-05T18:06:34.478Z,1021.5
2022-11-05T18:16:11.133Z,1021.56
2022-11-05T18:25:47.231Z,1021.61
2022-11-05T18:45:00.364Z,1021.59
2022-11-05T18:54:36.600Z,1021.71
2022-11-05T19:04:12.908Z,1021.56
2022-11-05T19:13:49.457Z,1021.58
2022-11-05T19:23:26.067Z,1021.79
2022-11-05T19:33:02.712Z,1021.72
2022-11-05T19:42:39.271Z,1021.7
2022-11-05T20:01:51.216Z,1021.79
2022-11-05T20:11:28.100Z,1021.72
2022-11-05T20:21:05.329Z,1021.88
2022-11-05T20:40:20.746Z,1022.04
2022-11-05T20:49:55.905Z,1022.03
2022-11-05T20:59:32.827Z,1022.12
2022-11-05T21:18:46.640Z,1022.28
2022-11-05T21:28:23.416Z,1022.31
2022-11-05T21:37:59.893Z,1022.12
2022-11-05T21:47:36.742Z,1022.08
2022-11-05T21:57:13.601Z,1022.11
2022-11-05T22:06:50.270Z,1022.07
2022-11-05T22:16:27.120Z,1022
2022-11-05T22:26:03.491Z,1021.94
2022-11-05T22:35:42.007Z,1021.99
2022-11-05T22:45:17.518Z,1022
2022-11-05T22:54:54.812Z,1021.93
2022-11-05T23:04:31.768Z,1021.91
2022-11-05T23:14:08.194Z,1021.97
2022-11-05T23:23:44.799Z,1022
2022-11-05T23:33:21.338Z,1021.93
2022-11-05T23:52:34.548Z,1022.09
